createdAt,value
2017-03-12T00:00:30.341Z,0
2017-03-12T00:01:11.259Z,0
2017-03-12T00:01:51.790Z,0
2017-03-12T00:02:32.267Z,0
2017-03-12T00:03:12.752Z,0
2017-03-12T00:03:53.247Z,0
2017-03-12T00:04:33.746Z,0
2017-03-12T00:05:14.264Z,0
2017-03-12T00:05:54.752Z,0
2017-03-12T00:06:35.263Z,0
2017-03-12T00:07:15.759Z,0
2017-03-12T00:07:56.260Z,0
2017-03-12T00:08:36.759Z,0
2017-03-12T00:09:17.258Z,0
2017-03-12T00:09:57.749Z,0
2017-03-12T00:10:38.229Z,0
2017-03-12T00:11:18.712Z,0
2017-03-12T00:11:59.204Z,0
2017-03-12T00:12:39.702Z,0
2017-03-12T00:13:20.193Z,0
2017-03-12T00:14:00.679Z,0
2017-03-12T00:14:41.166Z,0
2017-03-12T00:15:21.643Z,0
2017-03-12T00:16:02.153Z,0
2017-03-12T00:16:42.668Z,0
2017-03-12T00:17:23.154Z,0
2017-03-12T00:18:03.640Z,0
2017-03-12T00:18:44.144Z,0
2017-03-12T00:19:24.637Z,0
2017-03-12T00:20:05.121Z,0
2017-03-12T00:20:45.646Z,0
2017-03-12T00:21:26.142Z,0
2017-03-12T00:22:06.642Z,0
2017-03-12T00:22:47.141Z,0
2017-03-12T00:23:27.597Z,0
2017-03-12T00:24:08.091Z,0
2017-03-12T00:24:48.590Z,0
2017-03-12T00:25:29.066Z,0
2017-03-12T00:26:09.558Z,0
2017-03-12T00:26:50.047Z,0
2017-03-12T00:27:30.557Z,0
2017-03-12T00:28:11.039Z,0
2017-03-12T00:28:51.547Z,0
2017-03-12T00:29:32.036Z,0
2017-03-12T00:30:12.513Z,0
2017-03-12T00:30:53.009Z,0
2017-03-12T00:31:33.502Z,0
2017-03-12T00:32:14.024Z,0
2017-03-12T00:32:54.496Z,0
2017-03-12T00:33:35.007Z,0
2017-03-12T00:34:15.483Z,0
2017-03-12T00:34:55.979Z,0
2017-03-12T00:35:36.477Z,0
2017-03-12T00:36:16.965Z,0
2017-03-12T00:36:57.448Z,0
2017-03-12T00:37:37.948Z,0
2017-03-12T00:38:18.445Z,0
2017-03-12T00:38:58.927Z,0
2017-03-12T00:39:40.091Z,0
2017-03-12T00:40:20.583Z,0
2017-03-12T00:41:01.090Z,0
2017-03-12T00:41:41.577Z,0
2017-03-12T00:42:22.060Z,0
2017-03-12T00:43:02.544Z,0
2017-03-12T00:43:43.031Z,0
2017-03-12T00:44:23.535Z,0
2017-03-12T00:45:04.030Z,0
2017-03-12T00:45:44.529Z,0
2017-03-12T00:46:25.017Z,0
2017-03-12T00:47:05.503Z,0
2017-03-12T00:47:45.988Z,0
2017-03-12T00:48:26.496Z,0
2017-03-12T00:49:06.981Z,0
2017-03-12T00:49:47.462Z,0
2017-03-12T00:50:27.980Z,0
2017-03-12T00:51:08.465Z,0
2017-03-12T00:51:48.952Z,0
2017-03-12T00:52:29.439Z,0
2017-03-12T00:53:10.587Z,0
2017-03-12T00:53:51.060Z,0
2017-03-12T00:54:31.564Z,0
2017-03-12T00:55:12.043Z,0
2017-03-12T00:55:52.562Z,0
2017-03-12T00:56:33.044Z,0
2017-03-12T00:57:13.686Z,0
2017-03-12T00:57:54.176Z,0
2017-03-12T00:58:34.688Z,0
2017-03-12T00:59:15.179Z,0
2017-03-12T00:59:55.665Z,0
2017-03-12T01:00:36.173Z,0
2017-03-12T01:01:16.660Z,0
2017-03-12T01:01:57.145Z,0
2017-03-12T01:02:37.641Z,0
2017-03-12T01:03:18.135Z,0
2017-03-12T01:03:58.630Z,0
2017-03-12T01:04:39.133Z,0
2017-03-12T01:05:19.601Z,0
2017-03-12T01:06:00.101Z,0
2017-03-12T01:06:40.586Z,0
2017-03-12T01:07:21.077Z,0
2017-03-12T01:08:01.574Z,0
2017-03-12T01:08:42.065Z,0
2017-03-12T01:09:22.552Z,0
2017-03-12T01:10:03.048Z,0
2017-03-12T01:10:43.535Z,0
2017-03-12T01:11:24.019Z,0
2017-03-12T01:12:04.516Z,0
2017-03-12T01:12:45.457Z,0
2017-03-12T01:13:25.947Z,0
2017-03-12T01:14:06.434Z,0
2017-03-12T01:14:46.926Z,0
2017-03-12T01:15:27.427Z,0
2017-03-12T01:16:07.914Z,0
2017-03-12T01:16:48.405Z,0
2017-03-12T01:17:28.915Z,0
2017-03-12T01:18:09.422Z,0
2017-03-12T01:18:49.904Z,0
2017-03-12T01:19:30.406Z,0
2017-03-12T01:20:10.910Z,0
2017-03-12T01:20:51.427Z,0
2017-03-12T01:21:31.920Z,0
2017-03-12T01:22:12.417Z,0
2017-03-12T01:22:52.899Z,0
2017-03-12T01:23:33.390Z,0
2017-03-12T01:24:14.511Z,0
2017-03-12T01:24:55.007Z,0
2017-03-12T01:25:35.491Z,0
2017-03-12T01:26:15.977Z,0
2017-03-12T01:26:56.479Z,0
2017-03-12T01:27:36.969Z,0
2017-03-12T01:28:17.734Z,0
2017-03-12T01:28:58.233Z,0
2017-03-12T01:29:38.707Z,0
2017-03-12T01:30:19.233Z,0
2017-03-12T01:30:59.729Z,0
2017-03-12T01:31:40.228Z,0
2017-03-12T01:32:20.706Z,0
2017-03-12T01:33:01.196Z,0
2017-03-12T01:33:41.685Z,0
2017-03-12T01:34:22.177Z,0
2017-03-12T01:35:02.675Z,0
2017-03-12T01:35:43.164Z,0
2017-03-12T01:36:23.656Z,0
2017-03-12T01:37:04.175Z,0
2017-03-12T01:37:44.676Z,0
2017-03-12T01:38:25.162Z,0
2017-03-12T01:39:05.649Z,0
2017-03-12T01:39:46.130Z,0
2017-03-12T01:40:26.622Z,0
2017-03-12T01:41:07.113Z,0
2017-03-12T01:41:47.608Z,0
2017-03-12T01:42:28.735Z,0
2017-03-12T01:43:09.221Z,0
2017-03-12T01:43:49.731Z,0
2017-03-12T01:44:30.221Z,0
2017-03-12T01:45:10.709Z,0
2017-03-12T01:45:51.195Z,0
2017-03-12T01:46:31.683Z,0
2017-03-12T01:47:12.182Z,0
2017-03-12T01:47:52.651Z,0
2017-03-12T01:48:33.143Z,0
2017-03-12T01:49:13.633Z,0
2017-03-12T01:49:54.119Z,0
2017-03-12T01:50:34.620Z,0
2017-03-12T01:51:15.143Z,0
2017-03-12T01:51:55.630Z,0
2017-03-12T01:52:36.122Z,0
2017-03-12T01:53:16.622Z,0
2017-03-12T01:53:57.111Z,0
2017-03-12T01:54:37.600Z,0
2017-03-12T01:55:18.095Z,0
2017-03-12T01:55:58.620Z,0
2017-03-12T01:56:39.109Z,0
2017-03-12T01:57:19.589Z,0
2017-03-12T01:58:00.082Z,0
2017-03-12T01:58:40.584Z,0
2017-03-12T01:59:21.083Z,0
2017-03-12T02:00:01.581Z,0
2017-03-12T02:00:42.077Z,0
2017-03-12T02:01:22.581Z,0
2017-03-12T02:02:03.068Z,0
2017-03-12T02:02:43.561Z,0
2017-03-12T02:03:24.059Z,0
2017-03-12T02:04:04.537Z,0
2017-03-12T02:04:45.033Z,0
2017-03-12T02:05:25.536Z,0
2017-03-12T02:06:06.023Z,0
2017-03-12T02:06:46.506Z,0
2017-03-12T02:07:26.993Z,0
2017-03-12T02:08:07.480Z,0
2017-03-12T02:08:47.977Z,0
2017-03-12T02:09:28.467Z,0
2017-03-12T02:10:08.951Z,0
2017-03-12T02:10:49.438Z,0
2017-03-12T02:11:29.919Z,0
2017-03-12T02:12:10.408Z,0
2017-03-12T02:12:50.904Z,0
2017-03-12T02:13:31.937Z,0
2017-03-12T02:14:12.438Z,0
2017-03-12T02:14:52.926Z,0
2017-03-12T02:15:33.420Z,0
2017-03-12T02:16:13.910Z,0
2017-03-12T02:16:54.417Z,0
2017-03-12T02:17:34.915Z,0
2017-03-12T02:18:15.434Z,0
2017-03-12T02:18:55.920Z,0
2017-03-12T02:19:36.404Z,0
2017-03-12T02:20:16.905Z,0
2017-03-12T02:20:57.396Z,0
2017-03-12T02:21:37.884Z,0
2017-03-12T02:22:18.393Z,0
2017-03-12T02:22:58.873Z,0
2017-03-12T02:23:39.357Z,0
2017-03-12T02:24:20.023Z,0
2017-03-12T02:25:00.518Z,0
2017-03-12T02:25:41.011Z,0
2017-03-12T02:26:21.514Z,0
2017-03-12T02:27:02.007Z,0
2017-03-12T02:27:42.498Z,0
2017-03-12T02:28:23.016Z,0
2017-03-12T02:29:03.485Z,0
2017-03-12T02:29:43.974Z,0
2017-03-12T02:30:24.486Z,0
2017-03-12T02:31:04.971Z,0
2017-03-12T02:31:45.459Z,0
2017-03-12T02:32:25.959Z,0
2017-03-12T02:33:06.446Z,0
2017-03-12T02:33:46.930Z,0
2017-03-12T02:34:27.410Z,0
2017-03-12T02:35:07.894Z,0
2017-03-12T02:35:48.375Z,0
2017-03-12T02:36:28.865Z,0
2017-03-12T02:37:09.345Z,0
2017-03-12T02:37:49.841Z,0
2017-03-12T02:38:30.338Z,0
2017-03-12T02:39:10.825Z,0
2017-03-12T02:39:51.308Z,0
2017-03-12T02:40:31.790Z,0
2017-03-12T02:41:12.271Z,0
2017-03-12T02:41:52.784Z,0
2017-03-12T02:42:33.281Z,0
2017-03-12T02:43:13.781Z,0
2017-03-12T02:43:54.268Z,0
2017-03-12T02:44:34.757Z,0
2017-03-12T02:45:15.240Z,0
2017-03-12T02:45:55.749Z,0
2017-03-12T02:46:36.237Z,0
2017-03-12T02:47:16.740Z,0
2017-03-12T02:47:57.247Z,0
2017-03-12T02:48:37.736Z,0
2017-03-12T02:49:18.267Z,0
2017-03-12T02:49:58.724Z,0
2017-03-12T02:50:39.220Z,0
2017-03-12T02:51:19.710Z,0
2017-03-12T02:52:00.199Z,0
2017-03-12T02:52:40.713Z,0
2017-03-12T02:53:21.219Z,0
2017-03-12T02:54:01.717Z,0
2017-03-12T02:54:42.218Z,0
2017-03-12T02:55:22.708Z,0
2017-03-12T02:56:03.189Z,0
2017-03-12T02:56:43.702Z,0
2017-03-12T02:57:24.184Z,0
2017-03-12T02:58:04.671Z,0
2017-03-12T02:58:45.152Z,0
2017-03-12T02:59:25.628Z,0
2017-03-12T03:00:06.117Z,0
2017-03-12T03:00:46.611Z,0
2017-03-12T03:01:27.114Z,0
2017-03-12T03:02:07.597Z,0
2017-03-12T03:02:48.111Z,0
2017-03-12T03:03:28.605Z,0
2017-03-12T03:04:09.106Z,0
2017-03-12T03:04:49.597Z,0
2017-03-12T03:05:30.086Z,0
2017-03-12T03:06:10.591Z,0
2017-03-12T03:06:51.100Z,0
2017-03-12T03:07:31.586Z,0
2017-03-12T03:08:12.071Z,0
2017-03-12T03:08:52.560Z,0
2017-03-12T03:09:33.380Z,0
2017-03-12T03:10:13.893Z,0
2017-03-12T03:10:54.392Z,0
2017-03-12T03:11:34.893Z,0
2017-03-12T03:12:15.404Z,0
2017-03-12T03:12:55.900Z,0
2017-03-12T03:13:36.408Z,0
2017-03-12T03:14:16.893Z,0
2017-03-12T03:14:57.381Z,0
2017-03-12T03:15:37.872Z,0
2017-03-12T03:16:18.358Z,0
2017-03-12T03:16:58.856Z,0
2017-03-12T03:17:39.327Z,0
2017-03-12T03:18:19.851Z,0
2017-03-12T03:19:00.334Z,0
2017-03-12T03:19:40.823Z,0
2017-03-12T03:20:21.313Z,0
2017-03-12T03:21:01.802Z,0
2017-03-12T03:21:42.293Z,0
2017-03-12T03:22:22.797Z,0
2017-03-12T03:23:03.291Z,0
2017-03-12T03:23:43.779Z,0
2017-03-12T03:24:24.275Z,0
2017-03-12T03:25:04.997Z,0
2017-03-12T03:25:45.497Z,0
2017-03-12T03:26:25.982Z,0
2017-03-12T03:27:06.470Z,0
2017-03-12T03:27:46.940Z,0
2017-03-12T03:30:00.137Z,0
2017-03-12T03:30:40.623Z,0
2017-03-12T03:31:21.105Z,0
2017-03-12T03:32:01.611Z,0
2017-03-12T03:32:42.104Z,0
2017-03-12T03:33:22.581Z,0
2017-03-12T03:34:03.068Z,0
2017-03-12T03:34:43.581Z,0
2017-03-12T03:35:24.063Z,0
2017-03-12T03:36:04.556Z,0
2017-03-12T03:36:45.065Z,0
2017-03-12T03:37:25.547Z,0
2017-03-12T03:38:06.039Z,0
2017-03-12T03:38:46.508Z,0
2017-03-12T03:39:27.004Z,0
2017-03-12T03:40:07.503Z,0
2017-03-12T03:40:48.013Z,0
2017-03-12T03:41:28.476Z,0
2017-03-12T03:42:09.878Z,0
2017-03-12T03:42:50.371Z,0
2017-03-12T03:43:30.849Z,0
2017-03-12T03:44:11.321Z,0
2017-03-12T03:44:51.808Z,0
2017-03-12T03:45:32.326Z,0
2017-03-12T03:46:12.820Z,0
2017-03-12T03:46:53.321Z,0
2017-03-12T03:47:33.794Z,0
2017-03-12T03:48:14.287Z,0
2017-03-12T03:48:54.773Z,0
2017-03-12T03:49:35.259Z,0
2017-03-12T03:50:15.800Z,0
2017-03-12T03:50:56.229Z,0
2017-03-12T03:51:36.728Z,0
2017-03-12T03:52:17.214Z,0
2017-03-12T03:52:57.703Z,0
2017-03-12T03:53:38.216Z,0
2017-03-12T03:54:18.710Z,0
2017-03-12T03:54:59.202Z,0
2017-03-12T03:55:39.707Z,0
2017-03-12T03:56:20.210Z,0
2017-03-12T03:57:00.707Z,0
2017-03-12T03:57:41.248Z,0
2017-03-12T03:58:21.733Z,0
2017-03-12T03:59:02.213Z,0
2017-03-12T03:59:42.708Z,0
2017-03-12T04:00:23.206Z,0
2017-03-12T04:01:03.924Z,0
2017-03-12T04:01:44.414Z,0
2017-03-12T04:02:24.898Z,0
2017-03-12T04:03:05.409Z,0
2017-03-12T04:03:45.893Z,0
2017-03-12T04:04:26.376Z,0
2017-03-12T04:05:06.860Z,0
2017-03-12T04:05:47.354Z,0
2017-03-12T04:06:27.855Z,0
2017-03-12T04:07:08.336Z,0
2017-03-12T04:07:48.826Z,0
2017-03-12T04:08:29.308Z,0
2017-03-12T04:09:09.797Z,0
2017-03-12T04:09:50.308Z,0
2017-03-12T04:10:30.797Z,0
2017-03-12T04:11:11.277Z,0
2017-03-12T04:11:51.793Z,0
2017-03-12T04:12:32.296Z,0
2017-03-12T04:13:12.785Z,0
2017-03-12T04:13:53.297Z,0
2017-03-12T04:14:33.793Z,0
2017-03-12T04:15:14.298Z,0
2017-03-12T04:15:54.779Z,0
2017-03-12T04:16:35.293Z,0
2017-03-12T04:17:15.787Z,0
2017-03-12T04:17:56.294Z,0
2017-03-12T04:18:36.780Z,0
2017-03-12T04:19:17.262Z,0
2017-03-12T04:19:57.745Z,0
2017-03-12T04:20:38.240Z,0
2017-03-12T04:21:18.736Z,0
2017-03-12T04:21:59.215Z,0
2017-03-12T04:22:39.701Z,0
2017-03-12T04:23:20.191Z,0
2017-03-12T04:24:00.685Z,0
2017-03-12T04:24:41.180Z,0
2017-03-12T04:25:21.669Z,0
2017-03-12T04:26:02.165Z,0
2017-03-12T04:26:42.635Z,0
2017-03-12T04:27:23.130Z,0
2017-03-12T04:28:03.632Z,0
2017-03-12T04:28:44.117Z,0
2017-03-12T04:29:24.618Z,0
2017-03-12T04:30:05.126Z,0
2017-03-12T04:30:45.624Z,0
2017-03-12T04:31:26.124Z,0
2017-03-12T04:32:06.616Z,0
2017-03-12T04:32:47.115Z,0
2017-03-12T04:33:27.632Z,0
2017-03-12T04:34:08.114Z,0
2017-03-12T04:34:48.623Z,0
2017-03-12T04:35:29.122Z,0
2017-03-12T04:36:09.625Z,0
2017-03-12T04:36:50.104Z,0
2017-03-12T04:37:30.590Z,0
2017-03-12T04:38:11.071Z,0
2017-03-12T04:38:51.569Z,0
2017-03-12T04:39:32.067Z,0
2017-03-12T04:40:12.545Z,0
2017-03-12T04:40:53.039Z,0
2017-03-12T04:41:33.526Z,0
2017-03-12T04:42:14.022Z,0
2017-03-12T04:42:54.515Z,0
2017-03-12T04:43:34.988Z,0
2017-03-12T04:44:15.482Z,0
2017-03-12T04:44:55.964Z,0
2017-03-12T04:45:36.455Z,0
2017-03-12T04:46:16.993Z,0
2017-03-12T04:46:57.422Z,0
2017-03-12T04:47:37.907Z,0
2017-03-12T04:48:18.400Z,0
2017-03-12T04:48:58.889Z,0
2017-03-12T04:49:39.398Z,0
2017-03-12T04:50:19.905Z,0
2017-03-12T04:51:00.399Z,0
2017-03-12T04:51:40.888Z,0
2017-03-12T04:52:21.371Z,0
2017-03-12T04:53:01.899Z,0
2017-03-12T04:53:42.396Z,0
2017-03-12T04:54:22.920Z,0
2017-03-12T04:55:03.359Z,0
2017-03-12T04:55:43.848Z,0
2017-03-12T04:56:24.333Z,0
2017-03-12T04:57:04.895Z,0
2017-03-12T04:57:45.380Z,0
2017-03-12T04:58:25.871Z,0
2017-03-12T04:59:06.363Z,0
2017-03-12T04:59:46.848Z,0
2017-03-12T05:00:27.323Z,0
2017-03-12T05:01:07.838Z,0
2017-03-12T05:01:48.359Z,0
2017-03-12T05:02:28.816Z,0
2017-03-12T05:03:09.302Z,0
2017-03-12T05:03:49.811Z,0
2017-03-12T05:04:30.301Z,0
2017-03-12T05:05:10.787Z,0
2017-03-12T05:05:51.287Z,0
2017-03-12T05:06:31.763Z,0
2017-03-12T05:07:12.272Z,0
2017-03-12T05:07:52.731Z,0
2017-03-12T05:08:33.223Z,0
2017-03-12T05:09:13.733Z,0
2017-03-12T05:09:54.219Z,0
2017-03-12T05:10:34.732Z,0
2017-03-12T05:11:15.216Z,0
2017-03-12T05:11:55.712Z,0
2017-03-12T05:12:36.214Z,0
2017-03-12T05:13:16.731Z,0
2017-03-12T05:13:57.221Z,0
2017-03-12T05:14:37.722Z,0
2017-03-12T05:15:18.220Z,0
2017-03-12T05:15:58.698Z,4
2017-03-12T05:16:39.194Z,4
2017-03-12T05:17:19.691Z,4
2017-03-12T05:18:00.174Z,0
2017-03-12T05:18:40.660Z,4
2017-03-12T05:19:21.172Z,4
2017-03-12T05:20:01.655Z,4
2017-03-12T05:20:42.144Z,4
2017-03-12T05:21:22.641Z,4
2017-03-12T05:22:03.130Z,4
2017-03-12T05:22:43.615Z,8
2017-03-12T05:23:24.105Z,8
2017-03-12T05:24:04.590Z,8
2017-03-12T05:24:45.088Z,8
2017-03-12T05:25:25.587Z,8
2017-03-12T05:26:06.069Z,12
2017-03-12T05:26:46.565Z,12
2017-03-12T05:27:27.060Z,12
2017-03-12T05:28:07.553Z,16
2017-03-12T05:28:48.821Z,16
2017-03-12T05:29:29.326Z,16
2017-03-12T05:30:09.795Z,20
2017-03-12T05:30:50.295Z,24
2017-03-12T05:31:30.797Z,24
2017-03-12T05:32:11.289Z,28
2017-03-12T05:32:51.778Z,32
2017-03-12T05:33:32.255Z,32
2017-03-12T05:34:12.743Z,36
2017-03-12T05:34:53.908Z,40
2017-03-12T05:35:34.407Z,44
2017-03-12T05:36:14.898Z,48
2017-03-12T05:36:55.386Z,52
2017-03-12T05:37:35.870Z,56
2017-03-12T05:38:16.357Z,64
2017-03-12T05:38:56.845Z,68
2017-03-12T05:39:37.346Z,72
2017-03-12T05:40:17.839Z,76
2017-03-12T05:40:58.331Z,80
2017-03-12T05:41:38.823Z,88
2017-03-12T05:42:19.590Z,92
2017-03-12T05:43:00.083Z,96
2017-03-12T05:43:40.578Z,100
2017-03-12T05:44:21.080Z,104
2017-03-12T05:45:01.581Z,112
2017-03-12T05:45:42.069Z,116
2017-03-12T05:46:22.562Z,124
2017-03-12T05:47:03.070Z,128
2017-03-12T05:47:43.571Z,132
2017-03-12T05:48:24.082Z,128
2017-03-12T05:49:04.572Z,132
2017-03-12T05:49:45.052Z,132
2017-03-12T05:50:25.537Z,140
2017-03-12T05:51:06.027Z,140
2017-03-12T05:51:46.522Z,148
2017-03-12T05:52:27.022Z,156
2017-03-12T05:53:07.484Z,160
2017-03-12T05:53:47.984Z,172
2017-03-12T05:54:28.465Z,180
2017-03-12T05:55:08.963Z,188
2017-03-12T05:55:49.452Z,196
2017-03-12T05:56:29.940Z,200
2017-03-12T05:57:10.449Z,192
2017-03-12T05:57:51.364Z,188
2017-03-12T05:58:31.877Z,180
2017-03-12T05:59:12.375Z,176
2017-03-12T05:59:52.868Z,180
2017-03-12T06:00:33.372Z,180
2017-03-12T06:01:13.877Z,188
2017-03-12T06:01:54.345Z,192
2017-03-12T06:02:34.869Z,192
2017-03-12T06:03:15.346Z,192
2017-03-12T06:03:55.837Z,200
2017-03-12T06:04:36.321Z,200
2017-03-12T06:05:16.804Z,200
2017-03-12T06:05:57.292Z,204
2017-03-12T06:06:37.772Z,204
2017-03-12T06:07:18.283Z,208
2017-03-12T06:07:58.764Z,204
2017-03-12T06:08:39.263Z,208
2017-03-12T06:09:19.758Z,208
2017-03-12T06:10:00.247Z,212
2017-03-12T06:10:40.738Z,216
2017-03-12T06:11:21.215Z,216
2017-03-12T06:12:01.706Z,224
2017-03-12T06:12:42.205Z,228
2017-03-12T06:13:22.682Z,240
2017-03-12T06:14:03.173Z,256
2017-03-12T06:14:43.663Z,280
2017-03-12T06:15:24.149Z,316
2017-03-12T06:16:04.632Z,336
2017-03-12T06:16:45.112Z,360
2017-03-12T06:17:25.596Z,368
2017-03-12T06:18:06.101Z,368
2017-03-12T06:18:46.596Z,360
2017-03-12T06:19:27.096Z,336
2017-03-12T06:20:07.622Z,296
2017-03-12T06:20:48.106Z,268
2017-03-12T06:21:28.597Z,252
2017-03-12T06:22:09.100Z,244
2017-03-12T06:22:49.586Z,232
2017-03-12T06:23:30.068Z,228
2017-03-12T06:24:10.599Z,220
2017-03-12T06:24:51.094Z,220
2017-03-12T06:25:31.581Z,216
2017-03-12T06:26:12.072Z,208
2017-03-12T06:26:52.589Z,208
2017-03-12T06:27:33.096Z,204
2017-03-12T06:28:14.339Z,204
2017-03-12T06:28:54.853Z,204
2017-03-12T06:29:35.360Z,204
2017-03-12T06:30:15.852Z,200
2017-03-12T06:30:56.353Z,204
2017-03-12T06:31:36.835Z,200
2017-03-12T06:32:17.319Z,204
2017-03-12T06:32:57.811Z,208
2017-03-12T06:33:38.299Z,212
2017-03-12T06:34:18.806Z,216
2017-03-12T06:34:59.291Z,216
2017-03-12T06:35:39.780Z,220
2017-03-12T06:36:20.261Z,228
2017-03-12T06:37:00.762Z,236
2017-03-12T06:37:41.256Z,240
2017-03-12T06:38:21.745Z,248
2017-03-12T06:39:02.261Z,260
2017-03-12T06:39:42.740Z,264
2017-03-12T06:40:23.218Z,272
2017-03-12T06:41:03.709Z,276
2017-03-12T06:41:44.215Z,288
2017-03-12T06:42:24.702Z,296
2017-03-12T06:43:05.217Z,300
2017-03-12T06:43:46.218Z,308
2017-03-12T06:44:26.706Z,316
2017-03-12T06:45:07.184Z,320
2017-03-12T06:45:47.694Z,324
2017-03-12T06:46:28.204Z,332
2017-03-12T06:47:08.693Z,336
2017-03-12T06:47:49.181Z,340
2017-03-12T06:48:29.661Z,348
2017-03-12T06:49:10.167Z,352
2017-03-12T06:49:50.655Z,356
2017-03-12T06:50:31.145Z,364
2017-03-12T06:51:11.648Z,368
2017-03-12T06:51:52.202Z,376
2017-03-12T06:52:32.686Z,380
2017-03-12T06:53:13.171Z,384
2017-03-12T06:53:54.027Z,388
2017-03-12T06:54:34.514Z,392
2017-03-12T06:55:15.016Z,392
2017-03-12T06:55:55.564Z,388
2017-03-12T06:56:36.056Z,392
2017-03-12T06:57:16.545Z,392
2017-03-12T06:57:57.079Z,392
2017-03-12T06:58:37.563Z,392
2017-03-12T06:59:18.048Z,396
2017-03-12T06:59:58.542Z,392
2017-03-12T07:00:39.022Z,396
2017-03-12T07:01:19.510Z,400
2017-03-12T07:02:00.029Z,400
2017-03-12T07:02:40.492Z,408
2017-03-12T07:03:20.985Z,412
2017-03-12T07:04:01.499Z,412
2017-03-12T07:04:41.980Z,416
2017-03-12T07:05:22.469Z,420
2017-03-12T07:06:02.947Z,428
2017-03-12T07:06:43.443Z,432
2017-03-12T07:07:24.448Z,440
2017-03-12T07:08:04.926Z,444
2017-03-12T07:08:45.411Z,456
2017-03-12T07:09:25.898Z,460
2017-03-12T07:10:06.388Z,468
2017-03-12T07:10:46.891Z,480
2017-03-12T07:11:27.390Z,492
2017-03-12T07:12:07.908Z,500
2017-03-12T07:12:48.373Z,512
2017-03-12T07:13:28.846Z,524
2017-03-12T07:14:09.342Z,532
2017-03-12T07:14:49.825Z,544
2017-03-12T07:15:30.344Z,556
2017-03-12T07:16:10.836Z,568
2017-03-12T07:16:51.341Z,576
2017-03-12T07:17:31.815Z,588
2017-03-12T07:18:12.319Z,600
2017-03-12T07:18:52.832Z,608
2017-03-12T07:19:33.318Z,616
2017-03-12T07:20:13.836Z,628
2017-03-12T07:20:54.336Z,632
2017-03-12T07:21:34.828Z,644
2017-03-12T07:22:15.363Z,648
2017-03-12T07:22:55.879Z,656
2017-03-12T07:23:36.384Z,660
2017-03-12T07:24:17.327Z,668
2017-03-12T07:24:58.432Z,676
2017-03-12T07:25:38.920Z,680
2017-03-12T07:26:19.435Z,684
2017-03-12T07:26:59.914Z,688
2017-03-12T07:27:40.420Z,692
2017-03-12T07:28:20.947Z,696
2017-03-12T07:29:01.432Z,704
2017-03-12T07:29:41.917Z,716
2017-03-12T07:30:22.405Z,724
2017-03-12T07:31:02.903Z,732
2017-03-12T07:31:43.387Z,748
2017-03-12T07:32:23.901Z,760
2017-03-12T07:33:04.394Z,772
2017-03-12T07:33:44.898Z,788
2017-03-12T07:34:25.386Z,804
2017-03-12T07:35:05.899Z,820
2017-03-12T07:35:46.375Z,832
2017-03-12T07:36:26.863Z,852
2017-03-12T07:37:07.349Z,868
2017-03-12T07:37:47.823Z,888
2017-03-12T07:38:28.310Z,904
2017-03-12T07:39:08.800Z,924
2017-03-12T07:39:49.655Z,944
2017-03-12T07:40:30.144Z,964
2017-03-12T07:41:10.625Z,984
2017-03-12T07:41:51.694Z,1004
2017-03-12T07:42:31.679Z,1032
2017-03-12T07:43:12.190Z,1052
2017-03-12T07:43:52.686Z,1076
2017-03-12T07:44:33.168Z,1100
2017-03-12T07:45:13.651Z,1120
2017-03-12T07:45:54.128Z,1144
2017-03-12T07:46:34.622Z,1160
2017-03-12T07:47:15.129Z,1180
2017-03-12T07:47:55.645Z,1204
2017-03-12T07:48:36.133Z,1220
2017-03-12T07:49:16.612Z,1244
2017-03-12T07:49:57.108Z,1260
2017-03-12T07:50:37.586Z,1280
2017-03-12T07:51:19.031Z,1296
2017-03-12T07:51:59.520Z,1316
2017-03-12T07:52:40.009Z,1340
2017-03-12T07:53:20.492Z,1364
2017-03-12T07:54:00.986Z,1388
2017-03-12T07:54:41.471Z,1420
2017-03-12T07:55:22.144Z,1452
2017-03-12T07:56:02.656Z,1488
2017-03-12T07:56:43.143Z,1524
2017-03-12T07:57:23.634Z,1568
2017-03-12T07:58:04.136Z,1616
2017-03-12T07:58:44.625Z,1664
2017-03-12T07:59:25.126Z,1720
2017-03-12T08:00:05.618Z,1776
2017-03-12T08:00:46.110Z,1832
2017-03-12T08:01:26.627Z,1900
2017-03-12T08:02:07.108Z,1964
2017-03-12T08:02:47.602Z,2028
2017-03-12T08:03:28.097Z,2096
2017-03-12T08:04:08.599Z,2160
2017-03-12T08:04:49.095Z,2228
2017-03-12T08:05:29.583Z,2300
2017-03-12T08:06:10.135Z,2368
2017-03-12T08:06:50.624Z,2436
2017-03-12T08:07:31.110Z,2500
2017-03-12T08:08:11.608Z,2568
2017-03-12T08:08:52.095Z,2636
2017-03-12T08:09:32.596Z,2696
2017-03-12T08:10:13.081Z,2756
2017-03-12T08:10:53.604Z,2820
2017-03-12T08:11:34.085Z,2864
2017-03-12T08:12:14.555Z,2908
2017-03-12T08:12:55.043Z,2952
2017-03-12T08:13:35.539Z,2984
2017-03-12T08:14:16.026Z,3016
2017-03-12T08:14:56.512Z,3056
2017-03-12T08:15:36.996Z,3112
2017-03-12T08:16:17.499Z,3176
2017-03-12T08:16:58.014Z,3268
2017-03-12T08:17:38.471Z,3376
2017-03-12T08:18:18.958Z,3464
2017-03-12T08:19:00.054Z,3592
2017-03-12T08:19:40.537Z,3696
2017-03-12T08:20:21.026Z,3860
2017-03-12T08:21:01.538Z,4012
2017-03-12T08:21:42.043Z,4212
2017-03-12T08:22:22.538Z,4492
2017-03-12T08:23:03.041Z,4864
2017-03-12T08:23:43.539Z,5500
2017-03-12T08:24:24.044Z,6208
2017-03-12T08:25:04.541Z,6080
2017-03-12T08:25:45.039Z,5904
2017-03-12T08:26:25.520Z,5728
2017-03-12T08:27:06.021Z,5692
2017-03-12T08:27:46.530Z,6028
2017-03-12T08:28:27.013Z,6056
2017-03-12T08:29:07.510Z,6364
2017-03-12T08:29:48.002Z,6556
2017-03-12T08:30:28.999Z,6256
2017-03-12T08:31:09.479Z,5712
2017-03-12T08:31:49.970Z,5328
2017-03-12T08:32:30.458Z,5168
2017-03-12T08:33:10.959Z,4928
2017-03-12T08:33:51.447Z,4920
2017-03-12T08:34:31.932Z,4848
2017-03-12T08:35:12.425Z,4944
2017-03-12T08:35:52.940Z,4992
2017-03-12T08:36:33.441Z,5048
2017-03-12T08:37:13.976Z,5220
2017-03-12T08:37:54.437Z,5184
2017-03-12T08:38:34.929Z,5160
2017-03-12T08:39:15.439Z,5188
2017-03-12T08:39:55.929Z,5252
2017-03-12T08:40:36.443Z,5632
2017-03-12T08:41:16.922Z,6080
2017-03-12T08:41:57.407Z,6956
2017-03-12T08:42:37.890Z,8032
2017-03-12T08:43:18.397Z,9264
2017-03-12T08:43:58.879Z,10400
2017-03-12T08:44:39.353Z,10364
2017-03-12T08:45:19.851Z,9740
2017-03-12T08:46:00.336Z,9744
2017-03-12T08:46:40.828Z,9772
2017-03-12T08:47:21.300Z,9832
2017-03-12T08:48:01.785Z,10396
2017-03-12T08:48:42.292Z,10024
2017-03-12T08:49:22.785Z,9496
2017-03-12T08:50:03.279Z,9420
2017-03-12T08:50:43.801Z,8312
2017-03-12T08:51:24.323Z,7832
2017-03-12T08:52:04.797Z,7016
2017-03-12T08:52:45.294Z,6672
2017-03-12T08:53:25.784Z,6968
2017-03-12T08:54:06.273Z,6832
2017-03-12T08:54:46.770Z,6480
2017-03-12T08:55:27.257Z,6456
2017-03-12T08:56:08.249Z,6108
2017-03-12T08:56:48.738Z,6020
2017-03-12T08:57:29.243Z,6060
2017-03-12T08:58:09.733Z,6144
2017-03-12T08:58:50.239Z,6388
2017-03-12T08:59:30.731Z,6336
2017-03-12T09:00:11.229Z,6540
2017-03-12T09:00:51.727Z,6848
2017-03-12T09:01:32.213Z,6956
2017-03-12T09:02:12.703Z,6616
2017-03-12T09:02:53.214Z,6076
2017-03-12T09:03:33.702Z,5724
2017-03-12T09:04:14.207Z,5708
2017-03-12T09:04:54.702Z,5712
2017-03-12T09:05:35.223Z,5680
2017-03-12T09:06:15.770Z,5680
2017-03-12T09:06:56.270Z,5748
2017-03-12T09:07:36.748Z,5764
2017-03-12T09:08:17.243Z,5780
2017-03-12T09:08:57.734Z,5816
2017-03-12T09:09:38.723Z,5960
2017-03-12T09:10:18.722Z,6104
2017-03-12T09:10:59.215Z,6488
2017-03-12T09:11:39.719Z,6476
2017-03-12T09:12:20.207Z,6604
2017-03-12T09:13:00.690Z,6464
2017-03-12T09:13:41.180Z,6632
2017-03-12T09:14:21.679Z,6468
2017-03-12T09:15:02.166Z,6636
2017-03-12T09:15:42.661Z,6560
2017-03-12T09:16:23.134Z,6492
2017-03-12T09:17:03.631Z,6624
2017-03-12T09:17:44.129Z,6684
2017-03-12T09:18:24.621Z,7788
2017-03-12T09:19:05.123Z,8824
2017-03-12T09:19:45.605Z,8580
2017-03-12T09:20:26.093Z,8644
2017-03-12T09:21:06.635Z,9532
2017-03-12T09:21:47.079Z,10348
2017-03-12T09:22:27.600Z,10180
2017-03-12T09:23:08.090Z,10568
2017-03-12T09:23:48.582Z,9668
2017-03-12T09:24:29.098Z,8592
2017-03-12T09:25:09.612Z,8260
2017-03-12T09:25:50.103Z,8300
2017-03-12T09:26:31.300Z,8640
2017-03-12T09:27:11.812Z,8916
2017-03-12T09:27:52.319Z,9384
2017-03-12T09:28:32.813Z,10396
2017-03-12T09:29:13.312Z,9352
2017-03-12T09:29:53.801Z,9036
2017-03-12T09:30:34.318Z,9984
2017-03-12T09:31:14.812Z,11132
2017-03-12T09:31:55.316Z,10072
2017-03-12T09:32:35.830Z,10004
2017-03-12T09:33:16.314Z,10636
2017-03-12T09:33:56.809Z,10680
2017-03-12T09:34:37.302Z,9856
2017-03-12T09:35:17.802Z,10340
2017-03-12T09:35:58.305Z,12000
2017-03-12T09:36:38.809Z,14232
2017-03-12T09:37:19.306Z,10800
2017-03-12T09:37:59.793Z,11116